Terminal Aerodrome Forecast
Issued by NWS Austin/San Antonio, TX

Current Version | Previous Version | Text Only | Print | Product List | Glossary Off
Versions: 1 2 3 4 5 6 7 8 9 10 11 12 13

000
FTUS44 KEWX 282300
TAFSAT
TAF
KSAT 282338Z 2900/3006 16010KT P6SM SCT250
     FM290900 20005KT 1SM BR SCT003 SCT100
      TEMPO 2911/2915 BKN003
     FM291600 16005KT P6SM SCT100
     FM292300 03015KT P6SM SCT100 BKN250=

USA.gov is the U.S. government's official web portal to all federal, state and local government web resources and services.